createdAt,value
2019-02-18T00:02:04.138Z,101907.97
2019-02-18T00:04:34.618Z,101913.69
2019-02-18T00:07:03.455Z,101914.08
2019-02-18T00:09:32.356Z,101911.84
2019-02-18T00:12:01.293Z,101914.59
2019-02-18T00:14:30.291Z,101910.33
2019-02-18T00:16:59.532Z,101912.25
2019-02-18T00:19:29.494Z,101915.37
2019-02-18T00:21:58.464Z,101906.30
2019-02-18T00:24:27.903Z,101907.90
2019-02-18T00:26:57.277Z,101903.14
2019-02-18T00:29:26.816Z,101907.34
2019-02-18T00:31:57.664Z,101910.66
2019-02-18T00:34:29.807Z,101910.19
2019-02-18T00:36:58.741Z,101899.88
2019-02-18T00:39:28.035Z,101898.77
2019-02-18T00:41:56.971Z,101900.97
2019-02-18T00:44:25.861Z,101900.25
2019-02-18T00:46:55.432Z,101898.16
2019-02-18T00:49:26.144Z,101894.13
2019-02-18T00:51:54.993Z,101894.16
2019-02-18T00:54:25.438Z,101890.78
2019-02-18T00:56:54.356Z,101899.70
2019-02-18T00:59:23.415Z,101893.51
2019-02-18T01:01:52.296Z,101895.30
2019-02-18T01:04:24.655Z,101895.44
2019-02-18T01:17:41.119Z,101906.97
2019-02-18T01:20:10.720Z,101904.23
2019-02-18T01:22:39.557Z,101901.87
2019-02-18T01:25:10.150Z,101904.80
2019-02-18T01:27:39.142Z,101901.45
2019-02-18T01:30:10.910Z,101895.95
2019-02-18T01:32:39.809Z,101895.11
2019-02-18T01:35:09.363Z,101904.55
2019-02-18T01:37:45.248Z,101899.29
2019-02-18T01:40:11.690Z,101908.59
2019-02-18T01:42:40.622Z,101911.63
2019-02-18T01:45:11.141Z,101884.50
2019-02-18T01:47:39.940Z,101906.53
2019-02-18T01:50:13.613Z,101905.14
2019-02-18T01:52:42.659Z,101903.16
2019-02-18T01:55:12.717Z,101901.02
2019-02-18T01:57:41.631Z,101898.30
2019-02-18T02:00:13.193Z,101890.19
2019-02-18T02:02:42.240Z,101894.80
2019-02-18T02:05:12.968Z,101894.80
2019-02-18T02:07:42.241Z,101894.52
2019-02-18T02:10:12.717Z,101889.86
2019-02-18T02:12:41.979Z,101887.75
2019-02-18T02:15:20.229Z,101900.50
2019-02-18T02:17:49.241Z,101892.62
2019-02-18T02:20:18.054Z,101887.48
2019-02-18T02:22:46.994Z,101886.22
2019-02-18T02:25:16.151Z,101880.59
2019-02-18T02:27:45.079Z,101888.47
2019-02-18T02:30:13.998Z,101883.61
2019-02-18T02:32:42.998Z,101893.48
2019-02-18T02:35:12.293Z,101891.44
2019-02-18T02:37:41.665Z,101888.91
2019-02-18T02:40:10.660Z,101887.75
2019-02-18T02:42:39.495Z,101886.86
2019-02-18T02:45:08.494Z,101880.66
2019-02-18T02:47:38.434Z,101885.19
2019-02-18T02:50:08.133Z,101895.52
2019-02-18T02:52:37.074Z,101885.20
2019-02-18T02:55:06.049Z,101885.62
2019-02-18T02:57:34.962Z,101881.84
2019-02-18T03:00:05.465Z,101883.16
2019-02-18T03:02:34.429Z,101887.66
2019-02-18T03:05:03.730Z,101882.22
2019-02-18T03:07:32.579Z,101878.81
2019-02-18T03:10:01.387Z,101876.98
2019-02-18T03:12:30.282Z,101878.73
2019-02-18T03:14:59.303Z,101883.12
2019-02-18T03:17:28.120Z,101883.45
2019-02-18T03:19:57.061Z,101879.58
2019-02-18T03:22:26.656Z,101880.83
2019-02-18T03:25:23.809Z,101879.69
2019-02-18T03:28:19.363Z,101881.08
2019-02-18T03:31:09.313Z,101883.67
2019-02-18T03:33:44.735Z,101877.95
2019-02-18T03:36:13.545Z,101878.66
2019-02-18T03:38:42.351Z,101872.39
2019-02-18T03:41:11.953Z,101872.20
2019-02-18T03:43:41.154Z,101872.95
2019-02-18T03:46:10.222Z,101869.98
2019-02-18T03:48:39.100Z,101865.23
2019-02-18T03:51:08.073Z,101861.73
2019-02-18T03:53:36.923Z,101871.42
2019-02-18T03:56:05.851Z,101867.27
2019-02-18T03:58:34.754Z,101863.16
2019-02-18T04:01:03.733Z,101864.83
2019-02-18T04:03:32.697Z,101870.60
2019-02-18T04:06:01.500Z,101867.03
2019-02-18T04:08:42.050Z,101865.08
2019-02-18T04:11:01.489Z,101859.04
2019-02-18T04:13:30.707Z,101863.59
2019-02-18T04:15:59.853Z,101861.97
2019-02-18T04:18:28.658Z,101866.39
2019-02-18T04:20:57.554Z,101865.51
2019-02-18T04:23:26.593Z,101866.43
2019-02-18T04:25:56.036Z,101861.31
2019-02-18T04:28:24.871Z,101857.22
2019-02-18T04:30:54.148Z,101864.64
2019-02-18T04:33:22.954Z,101861.03
2019-02-18T04:35:51.782Z,101865.17
2019-02-18T04:38:20.646Z,101871.36
2019-02-18T04:40:49.467Z,101868.64
2019-02-18T04:43:18.347Z,101872.03
2019-02-18T04:45:47.411Z,101868.08
2019-02-18T04:48:16.220Z,101865.94
2019-02-18T04:50:45.058Z,101865.73
2019-02-18T04:53:13.915Z,101864.03
2019-02-18T04:55:43.145Z,101861.54
2019-02-18T04:58:12.083Z,101859.22
2019-02-18T05:00:41.232Z,101858.82
2019-02-18T05:03:10.060Z,101862.78
2019-02-18T05:05:38.977Z,101854.30
2019-02-18T05:08:07.924Z,101851.66
2019-02-18T05:10:36.822Z,101846.42
2019-02-18T05:13:05.739Z,101861.02
2019-02-18T05:15:34.775Z,101851.30
2019-02-18T05:18:03.621Z,101855.84
2019-02-18T05:20:32.403Z,101850.78
2019-02-18T05:23:01.521Z,101855.91
2019-02-18T05:25:30.496Z,101855.03
2019-02-18T05:27:59.585Z,101850.28
2019-02-18T05:30:29.551Z,101846.96
2019-02-18T05:32:58.436Z,101853.41
2019-02-18T05:35:27.367Z,101854.30
2019-02-18T05:37:56.185Z,101853.52
2019-02-18T05:40:25.050Z,101861.16
2019-02-18T05:42:53.965Z,101863.27
2019-02-18T05:45:24.216Z,101862.55
2019-02-18T05:47:53.748Z,101869.12
2019-02-18T05:50:22.843Z,101868.27
2019-02-18T05:52:51.827Z,101862.94
2019-02-18T05:55:21.145Z,101861.84
2019-02-18T05:57:56.389Z,101865.31
2019-02-18T06:00:25.331Z,101854.31
2019-02-18T06:02:54.838Z,101857.64
2019-02-18T06:05:23.893Z,101847.56
2019-02-18T06:07:54.791Z,101842.55
2019-02-18T06:10:23.749Z,101846.44
2019-02-18T06:12:52.567Z,101855.11
2019-02-18T06:15:21.447Z,101854.70
2019-02-18T06:17:50.908Z,101853.79
2019-02-18T06:20:19.917Z,101861.68
2019-02-18T06:22:48.840Z,101862.65
2019-02-18T06:25:17.870Z,101863.98
2019-02-18T06:27:46.830Z,101863.84
2019-02-18T06:30:15.640Z,101863.91
2019-02-18T06:32:44.555Z,101870.08
2019-02-18T06:35:14.640Z,101869.19
2019-02-18T06:37:43.555Z,101869.74
2019-02-18T06:40:12.642Z,101870.91
2019-02-18T06:43:18.415Z,101877.91
2019-02-18T06:45:53.467Z,101880.54
2019-02-18T06:48:28.582Z,101874.34
2019-02-18T06:51:00.935Z,101879.42
2019-02-18T06:53:33.787Z,101878.61
2019-02-18T06:56:03.025Z,101876.95
2019-02-18T06:59:00.152Z,101883.19
2019-02-18T07:01:51.188Z,101882.23
2019-02-18T07:04:35.634Z,101888.80
2019-02-18T07:07:12.897Z,101892.12
2019-02-18T07:09:51.636Z,101894.81
2019-02-18T07:12:32.311Z,101892.88
2019-02-18T07:15:01.407Z,101894.23
2019-02-18T07:17:30.552Z,101894.28
2019-02-18T07:19:59.386Z,101891.20
2019-02-18T07:22:29.683Z,101896.94
2019-02-18T07:24:58.505Z,101891.72
2019-02-18T07:27:31.928Z,101891.08
2019-02-18T07:30:02.112Z,101894.86
2019-02-18T07:32:30.917Z,101897.83
2019-02-18T07:34:59.870Z,101894.05
2019-02-18T07:37:28.683Z,101883.92
2019-02-18T07:40:01.471Z,101886.91
2019-02-18T07:42:34.697Z,101897.70
2019-02-18T07:45:02.106Z,101892.76
2019-02-18T07:47:31.204Z,101886.05
2019-02-18T07:50:00.599Z,101894.10
2019-02-18T07:52:29.837Z,101895.48
2019-02-18T07:54:58.816Z,101895.55
2019-02-18T07:57:28.089Z,101893.14
2019-02-18T07:59:57.074Z,101888.75
2019-02-18T08:02:26.703Z,101883.30
2019-02-18T08:04:55.621Z,101889.30
2019-02-18T08:07:24.672Z,101886.92
2019-02-18T08:09:53.613Z,101879.53
2019-02-18T08:12:23.052Z,101880.50
2019-02-18T08:14:52.043Z,101879.20
2019-02-18T08:17:21.090Z,101881.82
2019-02-18T08:19:51.214Z,101885.20
2019-02-18T08:22:20.082Z,101888.69
2019-02-18T08:24:49.318Z,101889.27
2019-02-18T08:27:18.149Z,101851.59
2019-02-18T08:29:47.229Z,101884.77
2019-02-18T08:32:16.059Z,101879.80
2019-02-18T08:34:45.082Z,101880.47
2019-02-18T08:37:14.475Z,101876.47
2019-02-18T08:39:44.393Z,101878.91
2019-02-18T08:42:13.935Z,101877.14
2019-02-18T08:44:43.175Z,101882.68
2019-02-18T08:47:12.677Z,101876.56
2019-02-18T08:49:41.526Z,101864.89
2019-02-18T08:52:11.154Z,101868.15
2019-02-18T08:54:40.307Z,101865.47
2019-02-18T08:57:09.679Z,101858.73
2019-02-18T08:59:38.861Z,101850.54
2019-02-18T09:02:09.238Z,101852.94
2019-02-18T09:04:38.788Z,101847.44
2019-02-18T09:07:07.674Z,101856.13
2019-02-18T09:09:36.929Z,101849.38
2019-02-18T09:12:06.125Z,101847.16
2019-02-18T09:14:34.898Z,101842.46
2019-02-18T09:17:05.611Z,101841.85
2019-02-18T09:19:35.517Z,101839.89
2019-02-18T09:22:23.738Z,101839.51
2019-02-18T09:24:59.250Z,101834.77
2019-02-18T09:27:28.086Z,101841.84
2019-02-18T09:29:56.986Z,101832.98
2019-02-18T09:32:25.899Z,101833.05
2019-02-18T09:35:01.758Z,101830.95
2019-02-18T09:37:26.003Z,101829.73
2019-02-18T09:39:55.153Z,101833.13
2019-02-18T09:42:26.502Z,101835.92
2019-02-18T09:44:54.965Z,101829.23
2019-02-18T09:47:24.147Z,101830.04
2019-02-18T09:49:53.270Z,101823.56
2019-02-18T09:52:22.358Z,101819.34
2019-02-18T09:54:51.400Z,101816.04
2019-02-18T09:57:20.458Z,101816.52
2019-02-18T09:59:49.463Z,101807.98
2019-02-18T10:02:18.482Z,101804.98
2019-02-18T10:04:47.269Z,101796.78
2019-02-18T10:07:16.121Z,101797.78
2019-02-18T10:09:44.917Z,101795.60
2019-02-18T10:12:18.241Z,101799.67
2019-02-18T10:14:45.818Z,101797.57
2019-02-18T10:17:14.663Z,101790.03
2019-02-18T10:19:43.457Z,101788.62
2019-02-18T10:22:12.273Z,101785.81
2019-02-18T10:24:50.712Z,101788.33
2019-02-18T10:27:12.134Z,101784.59
2019-02-18T10:29:41.043Z,101791.34
2019-02-18T10:32:10.405Z,101782.80
2019-02-18T10:34:39.527Z,101778.12
2019-02-18T10:37:09.954Z,101786.37
2019-02-18T10:39:38.773Z,101778.35
2019-02-18T10:42:08.049Z,101779.45
2019-02-18T10:44:36.986Z,101777.75
2019-02-18T10:47:08.074Z,101768.94
2019-02-18T10:49:37.077Z,101757.19
2019-02-18T10:52:06.881Z,101751.72
2019-02-18T10:54:36.454Z,101752.13
2019-02-18T10:57:05.767Z,101746.39
2019-02-18T10:59:35.000Z,101742.88
2019-02-18T11:02:04.276Z,101737.77
2019-02-18T11:04:33.539Z,101736.39
2019-02-18T11:07:02.565Z,101735.33
2019-02-18T11:09:31.358Z,101731.79
2019-02-18T11:12:00.189Z,101731.61
2019-02-18T11:14:29.131Z,101732.02
2019-02-18T11:16:58.342Z,101730.75
2019-02-18T11:19:27.149Z,101725.48
2019-02-18T11:21:56.435Z,101715.70
2019-02-18T11:24:25.565Z,101708.11
2019-02-18T11:26:54.990Z,101706.83
2019-02-18T11:29:24.201Z,101700.64
2019-02-18T11:31:53.577Z,101704.53
2019-02-18T11:34:22.510Z,101699.17
2019-02-18T11:36:51.562Z,101701.14
2019-02-18T11:39:20.661Z,101698.78
2019-02-18T11:41:49.518Z,101693.58
2019-02-18T11:44:18.886Z,101690.55
2019-02-18T11:46:47.740Z,101688.84
2019-02-18T11:49:16.613Z,101684.02
2019-02-18T11:51:45.439Z,101675.19
2019-02-18T11:54:14.252Z,101672.42
2019-02-18T11:56:43.570Z,101665.99
2019-02-18T11:59:12.603Z,101668.55
2019-02-18T12:01:41.850Z,101661.73
2019-02-18T12:04:11.131Z,101661.20
2019-02-18T12:06:41.657Z,101662.86
2019-02-18T12:09:17.745Z,101661.48
2019-02-18T12:11:45.715Z,101655.75
2019-02-18T12:14:14.670Z,101663.36
2019-02-18T12:16:43.557Z,101662.20
2019-02-18T12:19:12.480Z,101655.50
2019-02-18T12:21:41.296Z,101653.06
2019-02-18T12:24:10.102Z,101649.42
2019-02-18T12:26:39.105Z,101647.37
2019-02-18T12:29:07.934Z,101635.75
2019-02-18T12:31:36.769Z,101635.97
2019-02-18T12:34:05.586Z,101627.39
2019-02-18T12:36:37.867Z,101620.52
2019-02-18T12:39:13.401Z,101620.48
2019-02-18T12:41:48.681Z,101601.49
2019-02-18T12:44:14.257Z,101593.59
2019-02-18T12:46:43.119Z,101603.98
2019-02-18T12:49:12.109Z,101589.52
2019-02-18T12:51:42.680Z,101594.80
2019-02-18T12:54:11.723Z,101576.14
2019-02-18T12:56:41.253Z,101581.08
2019-02-18T12:59:10.328Z,101572.87
2019-02-18T13:01:39.853Z,101572.87
2019-02-18T13:04:08.886Z,101573.95
2019-02-18T13:06:37.914Z,101570.52
2019-02-18T13:09:07.522Z,101564.16
2019-02-18T13:11:36.784Z,101564.21
2019-02-18T13:14:05.804Z,101558.64
2019-02-18T13:16:35.478Z,101557.31
2019-02-18T13:19:04.501Z,101572.86
2019-02-18T13:21:33.607Z,101564.38
2019-02-18T13:24:02.613Z,101561.15
2019-02-18T13:26:31.516Z,101546.88
2019-02-18T13:29:00.338Z,101552.05
2019-02-18T13:31:29.232Z,101544.88
2019-02-18T13:33:58.177Z,101545.19
2019-02-18T13:36:28.755Z,101539.50
2019-02-18T13:38:59.329Z,101529.79
2019-02-18T13:41:28.515Z,101523.85
2019-02-18T13:43:57.475Z,101535.40
2019-02-18T13:46:27.579Z,101531.20
2019-02-18T13:48:56.837Z,101532.00
2019-02-18T13:51:25.734Z,101526.84
2019-02-18T13:53:55.171Z,101527.88
2019-02-18T13:56:24.470Z,101528.17
2019-02-18T13:58:53.769Z,101525.00
2019-02-18T14:01:23.063Z,101516.19
2019-02-18T14:03:52.252Z,101511.08
2019-02-18T14:06:21.126Z,101508.30
2019-02-18T14:08:50.012Z,101512.44
2019-02-18T14:11:18.904Z,101510.60
2019-02-18T14:13:48.644Z,101511.52
2019-02-18T14:16:17.877Z,101506.31
2019-02-18T14:18:47.074Z,101509.49
2019-02-18T14:21:16.379Z,101502.84
2019-02-18T14:23:45.303Z,101506.73
2019-02-18T14:26:14.354Z,101505.91
2019-02-18T14:28:43.667Z,101497.50
2019-02-18T14:31:12.683Z,101508.19
2019-02-18T14:33:41.671Z,101494.94
2019-02-18T14:36:11.091Z,101499.58
2019-02-18T14:38:43.572Z,101492.06
2019-02-18T14:41:15.306Z,101475.77
2019-02-18T14:43:44.301Z,101498.53
2019-02-18T14:46:19.663Z,101498.06
2019-02-18T14:48:50.209Z,101493.95
2019-02-18T14:51:19.725Z,101493.53
2019-02-18T14:53:49.186Z,101487.44
2019-02-18T14:56:18.347Z,101492.33
2019-02-18T14:58:47.155Z,101491.36
2019-02-18T15:01:16.646Z,101488.94
2019-02-18T15:03:45.529Z,101484.30
2019-02-18T15:06:15.557Z,101478.80
2019-02-18T15:08:44.347Z,101476.45
2019-02-18T15:11:13.468Z,101474.16
2019-02-18T15:13:42.366Z,101475.69
2019-02-18T15:16:11.689Z,101467.86
2019-02-18T15:18:41.446Z,101463.59
2019-02-18T15:21:11.019Z,101467.28
2019-02-18T15:23:39.915Z,101467.04
2019-02-18T15:26:09.216Z,101462.03
2019-02-18T15:28:38.083Z,101455.66
2019-02-18T15:31:08.958Z,101457.90
2019-02-18T15:33:37.784Z,101449.59
2019-02-18T15:36:06.774Z,101446.41
2019-02-18T15:38:36.019Z,101445.67
2019-02-18T15:41:05.196Z,101438.89
2019-02-18T15:43:35.326Z,101439.09
2019-02-18T15:46:04.857Z,101441.98
2019-02-18T15:48:33.892Z,101444.21
2019-02-18T15:51:02.777Z,101436.19
2019-02-18T15:53:31.762Z,101433.16
2019-02-18T15:56:00.869Z,101432.66
2019-02-18T15:58:29.756Z,101436.11
2019-02-18T16:00:59.392Z,101439.73
2019-02-18T16:03:28.374Z,101389.18
2019-02-18T16:05:58.334Z,101430.64
2019-02-18T16:08:27.279Z,101431.62
2019-02-18T16:10:56.106Z,101423.73
2019-02-18T16:13:27.019Z,101423.95
2019-02-18T16:15:56.130Z,101420.75
2019-02-18T16:18:24.929Z,101411.72
2019-02-18T16:20:53.730Z,101413.01
2019-02-18T16:23:23.073Z,101415.23
2019-02-18T16:25:52.670Z,101418.48
2019-02-18T16:28:21.508Z,101418.55
2019-02-18T16:30:50.482Z,101414.53
2019-02-18T16:33:20.211Z,101419.95
2019-02-18T16:35:50.459Z,101418.17
2019-02-18T16:38:19.596Z,101417.91
2019-02-18T16:40:49.524Z,101415.66
2019-02-18T16:43:18.573Z,101413.83
2019-02-18T16:45:49.468Z,101396.20
2019-02-18T16:48:18.933Z,101419.76
2019-02-18T16:50:48.146Z,101416.24
2019-02-18T16:53:17.740Z,101411.23
2019-02-18T16:55:47.154Z,101421.11
2019-02-18T16:58:16.887Z,101417.22
2019-02-18T17:00:45.888Z,101425.62
2019-02-18T17:03:15.067Z,101415.27
2019-02-18T17:05:44.006Z,101422.00
2019-02-18T17:08:13.346Z,101421.13
2019-02-18T17:10:44.671Z,101417.21
2019-02-18T17:13:13.506Z,101422.16
2019-02-18T17:15:42.502Z,101418.06
2019-02-18T17:21:40.009Z,101408.93
2019-02-18T17:24:08.828Z,101408.22
2019-02-18T17:26:39.270Z,101414.20
2019-02-18T17:29:08.685Z,101409.80
2019-02-18T17:31:37.466Z,101413.13
2019-02-18T17:34:07.139Z,101408.12
2019-02-18T17:36:37.646Z,101405.45
2019-02-18T17:39:07.808Z,101403.34
2019-02-18T17:41:37.774Z,101399.54
2019-02-18T17:44:06.676Z,101392.87
2019-02-18T17:46:36.696Z,101384.55
2019-02-18T17:49:05.650Z,101387.47
2019-02-18T17:51:34.645Z,101387.47
2019-02-18T17:54:04.735Z,101378.14
2019-02-18T17:56:34.360Z,101381.95
2019-02-18T17:59:03.414Z,101372.55
2019-02-18T18:01:32.312Z,101372.47
2019-02-18T18:04:01.375Z,101371.38
2019-02-18T18:06:30.943Z,101367.05
2019-02-18T18:09:00.827Z,101370.67
2019-02-18T18:11:30.397Z,101375.32
2019-02-18T18:13:59.338Z,101366.86
2019-02-18T18:16:28.357Z,101364.35
2019-02-18T18:18:57.316Z,101366.88
2019-02-18T18:21:26.272Z,101355.17
2019-02-18T18:23:55.507Z,101352.47
2019-02-18T18:26:24.638Z,101344.81
2019-02-18T18:28:54.309Z,101348.50
2019-02-18T18:31:23.528Z,101344.44
2019-02-18T18:33:53.080Z,101344.59
2019-02-18T18:36:22.765Z,101336.81
2019-02-18T18:38:53.278Z,101345.45
2019-02-18T18:41:22.800Z,101342.27
2019-02-18T18:43:51.902Z,101340.84
2019-02-18T18:46:21.330Z,101339.40
2019-02-18T18:48:51.168Z,101347.00
2019-02-18T18:51:20.150Z,101334.84
2019-02-18T18:53:50.018Z,101340.41
2019-02-18T18:56:18.804Z,101338.83
2019-02-18T18:58:48.254Z,101348.23
2019-02-18T19:01:17.446Z,101347.27
2019-02-18T19:03:52.506Z,101352.63
2019-02-18T19:06:22.425Z,101351.45
2019-02-18T19:08:51.202Z,101350.14
2019-02-18T19:11:20.123Z,101347.73
2019-02-18T19:13:49.398Z,101354.02
2019-02-18T19:16:18.579Z,101358.22
2019-02-18T19:18:47.547Z,101347.17
2019-02-18T19:21:17.086Z,101353.80
2019-02-18T19:23:46.317Z,101350.30
2019-02-18T19:26:15.957Z,101347.48
2019-02-18T19:28:46.588Z,101345.95
2019-02-18T19:31:15.571Z,101348.41
2019-02-18T19:33:45.372Z,101351.64
2019-02-18T19:37:13.937Z,101348.46
2019-02-18T19:40:38.952Z,101354.47
2019-02-18T19:43:22.622Z,101356.89
2019-02-18T19:45:51.659Z,101358.48
2019-02-18T19:48:21.129Z,101335.56
2019-02-18T19:50:51.484Z,101348.08
2019-02-18T19:53:21.557Z,101351.64
2019-02-18T19:55:50.484Z,101344.49
2019-02-18T19:58:20.846Z,101348.36
2019-02-18T20:00:50.018Z,101343.88
2019-02-18T20:03:18.993Z,101344.56
2019-02-18T20:05:47.861Z,101345.25
2019-02-18T20:08:19.763Z,101338.96
2019-02-18T20:10:49.187Z,101341.77
2019-02-18T20:13:19.136Z,101345.31
2019-02-18T20:15:47.984Z,101338.91
2019-02-18T20:18:17.062Z,101338.47
2019-02-18T20:20:46.729Z,101341.13
2019-02-18T20:23:16.980Z,101340.34
2019-02-18T20:25:45.884Z,101336.88
2019-02-18T20:28:14.721Z,101338.64
2019-02-18T20:30:49.784Z,101330.42
2019-02-18T20:33:18.684Z,101331.49
2019-02-18T20:35:47.989Z,101325.50
2019-02-18T20:38:16.864Z,101335.87
2019-02-18T20:40:46.349Z,101326.31
2019-02-18T20:43:16.053Z,101326.17
2019-02-18T20:45:45.354Z,101327.73
2019-02-18T20:48:14.437Z,101329.72
2019-02-18T20:50:43.642Z,101319.88
2019-02-18T20:53:12.481Z,101319.11
2019-02-18T20:55:43.037Z,101318.05
2019-02-18T20:58:12.026Z,101320.52
2019-02-18T21:00:40.996Z,101323.33
2019-02-18T21:03:10.257Z,101314.94
2019-02-18T21:05:40.432Z,101309.58
2019-02-18T21:08:09.245Z,101306.42
2019-02-18T21:10:39.868Z,101306.88
2019-02-18T21:13:09.172Z,101305.55
2019-02-18T21:15:38.445Z,101304.92
2019-02-18T21:18:09.265Z,101305.16
2019-02-18T21:20:38.741Z,101300.09
2019-02-18T21:23:08.468Z,101301.70
2019-02-18T21:25:37.646Z,101304.34
2019-02-18T21:28:06.914Z,101302.83
2019-02-18T21:30:36.005Z,101301.33
2019-02-18T21:33:05.073Z,101299.73
2019-02-18T21:35:34.089Z,101294.50
2019-02-18T21:38:04.408Z,101294.81
2019-02-18T21:40:33.291Z,101297.09
2019-02-18T21:43:02.242Z,101288.09
2019-02-18T21:45:31.387Z,101286.46
2019-02-18T21:48:00.823Z,101286.81
2019-02-18T21:50:29.878Z,101289.79
2019-02-18T21:52:58.843Z,101288.62
2019-02-18T21:55:27.884Z,101293.67
2019-02-18T21:57:56.779Z,101285.65
2019-02-18T22:00:27.011Z,101280.41
2019-02-18T22:02:56.154Z,101281.63
2019-02-18T22:05:27.020Z,101271.56
2019-02-18T22:07:57.371Z,101280.00
2019-02-18T22:10:26.953Z,101275.48
2019-02-18T22:12:56.331Z,101272.49
2019-02-18T22:15:27.600Z,101272.75
2019-02-18T22:17:56.829Z,101275.44
2019-02-18T22:20:25.968Z,101272.20
2019-02-18T22:22:54.957Z,101277.11
2019-02-18T22:25:25.049Z,101273.30
2019-02-18T22:27:54.090Z,101279.67
2019-02-18T22:30:22.929Z,101272.40
2019-02-18T22:32:52.423Z,101274.16
2019-02-18T22:35:21.425Z,101265.05
2019-02-18T22:37:50.266Z,101268.72
2019-02-18T22:40:20.023Z,101264.27
2019-02-18T22:42:49.932Z,101262.86
2019-02-18T22:45:18.884Z,101256.83
2019-02-18T22:47:50.114Z,101259.38
2019-02-18T22:50:19.248Z,101257.38
2019-02-18T22:52:50.943Z,101263.01
2019-02-18T22:55:20.068Z,101255.16
2019-02-18T22:57:49.257Z,101259.48
2019-02-18T23:01:02.065Z,101257.09
2019-02-18T23:03:31.211Z,101255.16
2019-02-18T23:06:00.292Z,101250.04
2019-02-18T23:08:29.459Z,101255.00
2019-02-18T23:10:59.083Z,101253.75
2019-02-18T23:13:29.361Z,101252.72
2019-02-18T23:15:58.384Z,101246.70
2019-02-18T23:18:27.911Z,101240.55
2019-02-18T23:20:57.898Z,101244.25
2019-02-18T23:23:27.164Z,101242.95
2019-02-18T23:25:55.990Z,101239.94
2019-02-18T23:28:25.056Z,101242.38
2019-02-18T23:30:53.955Z,101242.08
2019-02-18T23:33:23.488Z,101235.83
2019-02-18T23:35:52.538Z,101243.00
2019-02-18T23:38:21.478Z,101242.62
2019-02-18T23:40:50.342Z,101237.65
2019-02-18T23:43:19.933Z,101233.69
2019-02-18T23:45:48.845Z,101237.59
2019-02-18T23:48:17.940Z,101240.72
2019-02-18T23:50:46.777Z,101242.33
2019-02-18T23:53:16.054Z,101237.14
2019-02-18T23:55:45.215Z,101241.38
2019-02-18T23:58:14.410Z,101239.76
